createdAt,value
2023-02-11T02:13:46.590Z,54.00
2023-02-11T02:16:00.458Z,48.30
2023-02-11T02:18:39.154Z,55.03
2023-02-11T02:21:03.833Z,65.75
2023-02-11T02:23:25.054Z,57.80
2023-02-11T02:25:50.441Z,66.32
2023-02-11T02:27:55.955Z,56.17
2023-02-11T02:30:10.868Z,64.25
2023-02-11T02:32:31.427Z,56.78
2023-02-11T02:34:48.785Z,56.38
2023-02-11T02:37:34.996Z,60.78
2023-02-11T02:39:37.625Z,69.32
2023-02-11T02:41:40.746Z,70.70
2023-02-11T02:43:46.226Z,62.55
2023-02-11T02:45:48.478Z,59.28
2023-02-11T02:47:50.650Z,61.47
2023-02-11T02:49:52.512Z,62.15
2023-02-11T02:54:08.162Z,47.40
2023-02-11T02:56:38.686Z,54.08
2023-02-11T02:59:03.788Z,50.65
2023-02-11T03:01:11.598Z,64.50
2023-02-11T03:03:28.863Z,67.75
2023-02-11T03:05:54.276Z,57.67
2023-02-11T03:08:23.474Z,58.90
2023-02-11T03:10:30.485Z,61.72
2023-02-11T03:12:35.022Z,69.72
2023-02-11T03:14:38.919Z,58.72
2023-02-11T03:16:43.189Z,65.78
2023-02-11T03:19:01.903Z,64.57
2023-02-11T03:21:07.290Z,66.07
2023-02-11T03:23:21.345Z,61.90
2023-02-11T03:25:30.220Z,64.53
2023-02-11T03:27:41.847Z,68.88
2023-02-11T03:29:55.594Z,64.35
2023-02-11T03:32:06.446Z,67.05
2023-02-11T03:34:14.508Z,66.22
2023-02-11T03:36:26.579Z,65.60
2023-02-11T03:40:39.007Z,60.72
2023-02-11T03:42:49.413Z,60.10
2023-02-11T03:44:57.326Z,59.65
2023-02-11T03:47:01.119Z,76.13
2023-02-11T03:49:12.397Z,69.68
2023-02-11T03:51:15.076Z,63.67
2023-02-11T03:53:19.049Z,61.90
2023-02-11T03:55:23.270Z,83.05
2023-02-11T03:57:25.118Z,59.00
2023-02-11T04:01:29.071Z,74.82
2023-02-11T04:03:33.076Z,64.55
2023-02-11T04:05:35.233Z,70.15
2023-02-11T04:07:37.096Z,68.05
2023-02-11T04:11:40.807Z,59.03
2023-02-11T04:15:44.517Z,78.97
2023-02-11T04:17:47.224Z,84.68
2023-02-11T04:19:49.082Z,72.68
2023-02-11T04:23:52.678Z,79.35
2023-02-11T04:27:56.509Z,84.80
2023-02-11T04:29:58.410Z,79.13
2023-02-11T04:34:02.075Z,86.53
2023-02-11T04:38:05.687Z,105.47
2023-02-11T04:42:09.617Z,118.20
2023-02-11T04:46:13.293Z,141.10
2023-02-11T04:48:15.225Z,122.80
2023-02-11T04:52:19.047Z,117.28
2023-02-11T04:54:22.052Z,78.57
2023-02-11T04:56:23.877Z,74.88
2023-02-11T05:00:27.481Z,68.72
2023-02-11T05:04:31.179Z,61.45
2023-02-11T05:06:33.159Z,70.22
2023-02-11T05:08:34.993Z,69.35
2023-02-11T05:12:38.702Z,70.28
2023-02-11T05:16:42.424Z,68.00
2023-02-11T05:20:46.836Z,65.47
2023-02-11T05:24:50.781Z,76.18
2023-02-11T05:26:52.630Z,81.30
2023-02-11T05:30:56.666Z,68.80
2023-02-11T05:32:58.557Z,75.70
2023-02-11T05:37:02.348Z,70.28
2023-02-11T05:39:04.358Z,70.60
2023-02-11T05:43:08.128Z,72.55
2023-02-11T05:47:11.820Z,73.38
2023-02-11T05:51:15.410Z,74.25
2023-02-11T05:55:19.492Z,71.32
2023-02-11T05:59:23.106Z,67.07
2023-02-11T06:01:24.997Z,63.22
2023-02-11T06:03:26.904Z,71.68
2023-02-11T06:07:30.562Z,69.82
2023-02-11T06:11:34.151Z,85.03
2023-02-11T06:15:38.309Z,77.03
2023-02-11T06:19:41.998Z,93.75
2023-02-11T06:21:44.696Z,105.60
2023-02-11T06:23:46.630Z,89.63
2023-02-11T06:27:50.834Z,84.10
2023-02-11T06:31:54.958Z,98.88
2023-02-11T06:33:56.911Z,107.72
2023-02-11T06:35:58.764Z,99.50
2023-02-11T06:38:00.813Z,107.63
2023-02-11T06:40:02.720Z,87.60
2023-02-11T06:44:09.818Z,94.78
2023-02-11T06:48:14.026Z,92.47
2023-02-11T06:50:16.004Z,81.07
2023-02-11T06:54:19.564Z,81.68
2023-02-11T06:56:24.510Z,93.68
2023-02-11T06:58:26.339Z,105.68
2023-02-11T07:00:29.152Z,96.68
2023-02-11T07:02:31.185Z,98.13
2023-02-11T07:04:33.136Z,99.78
2023-02-11T07:06:35.066Z,99.65
2023-02-11T07:08:37.881Z,108.53
2023-02-11T07:10:39.785Z,107.80
2023-02-11T07:12:41.679Z,105.25
2023-02-11T07:14:43.551Z,91.78
2023-02-11T07:16:45.393Z,87.75
2023-02-11T07:18:48.476Z,95.88
2023-02-11T07:20:50.391Z,85.28
2023-02-11T07:24:54.054Z,93.85
2023-02-11T07:28:57.628Z,89.00
2023-02-11T07:30:59.545Z,85.40
2023-02-11T07:33:01.445Z,86.47
2023-02-11T07:35:04.034Z,73.93
2023-02-11T07:37:05.981Z,70.45
2023-02-11T07:39:07.839Z,76.63
2023-02-11T07:41:12.461Z,67.82
2023-02-11T07:43:14.339Z,62.88
2023-02-11T07:45:16.436Z,68.32
2023-02-11T07:47:18.379Z,55.80
2023-02-11T07:51:24.664Z,54.38
2023-02-11T07:53:26.465Z,55.80
2023-02-11T07:55:28.346Z,61.90
2023-02-11T07:57:30.333Z,56.33
2023-02-11T08:01:34.082Z,59.22
2023-02-11T08:07:40.711Z,54.53
2023-02-11T08:11:44.957Z,53.78
2023-02-11T08:13:47.132Z,69.43
2023-02-11T08:15:49.434Z,59.78
2023-02-11T08:17:51.464Z,65.75
2023-02-11T08:19:53.338Z,58.22
2023-02-11T08:21:59.811Z,55.60
2023-02-11T08:24:03.206Z,54.55
2023-02-11T08:26:10.398Z,54.33
2023-02-11T08:28:12.367Z,53.95
2023-02-11T08:32:16.360Z,50.63
2023-02-11T08:34:19.208Z,48.05
2023-02-11T08:36:24.014Z,49.05
2023-02-11T08:38:26.021Z,40.70
2023-02-11T08:42:29.781Z,45.25
2023-02-11T08:44:31.654Z,48.35
2023-02-11T08:46:33.556Z,48.58
2023-02-11T08:48:35.537Z,44.25
2023-02-11T08:52:40.945Z,42.63
2023-02-11T08:54:43.197Z,48.33
2023-02-11T08:56:45.673Z,46.42
2023-02-11T08:58:48.042Z,45.47
2023-02-11T09:00:50.458Z,44.40
2023-02-11T09:02:52.612Z,45.58
2023-02-11T09:04:54.503Z,51.15
2023-02-11T09:06:56.847Z,53.53
2023-02-11T09:08:58.830Z,46.95
2023-02-11T09:13:02.602Z,47.45
2023-02-11T09:17:06.462Z,47.13
2023-02-11T09:21:12.769Z,45.67
2023-02-11T09:23:16.462Z,46.22
2023-02-11T09:25:20.250Z,48.28
2023-02-11T09:29:23.864Z,47.92
2023-02-11T09:31:28.100Z,45.92
2023-02-11T09:33:30.066Z,49.33
2023-02-11T09:35:33.484Z,44.35
2023-02-11T09:37:37.349Z,48.70
2023-02-11T09:39:39.399Z,51.30
2023-02-11T09:41:41.262Z,53.05
2023-02-11T09:43:48.060Z,49.83
2023-02-11T09:45:51.444Z,52.80
2023-02-11T09:47:59.291Z,44.17
2023-02-11T09:50:11.043Z,55.45
2023-02-11T09:52:18.880Z,50.75
2023-02-11T09:54:58.209Z,47.17
2023-02-11T09:57:00.148Z,44.72
2023-02-11T09:59:02.351Z,45.55
2023-02-11T10:01:21.841Z,43.60
2023-02-11T10:03:59.264Z,56.60
2023-02-11T10:06:30.573Z,57.38
2023-02-11T10:08:54.299Z,48.50
2023-02-11T10:11:15.566Z,45.13
2023-02-11T10:13:53.189Z,52.97
2023-02-11T10:16:24.955Z,46.45
2023-02-11T10:18:26.758Z,53.10
2023-02-11T10:20:54.250Z,55.05
2023-02-11T10:23:01.305Z,53.35
2023-02-11T10:25:24.748Z,53.10
2023-02-11T10:27:35.504Z,44.92
2023-02-11T10:29:43.850Z,43.80
2023-02-11T10:31:47.454Z,47.95
2023-02-11T10:34:07.181Z,43.13
2023-02-11T10:36:12.256Z,46.78
2023-02-11T10:38:14.341Z,52.88
2023-02-11T10:40:23.014Z,45.55
2023-02-11T10:42:26.009Z,50.95
2023-02-11T10:44:39.366Z,59.45
2023-02-11T10:46:43.901Z,51.35
2023-02-11T10:48:52.794Z,50.65
2023-02-11T10:51:22.721Z,47.88
2023-02-11T10:53:24.682Z,39.97
2023-02-11T10:55:30.933Z,39.78
2023-02-11T10:57:46.165Z,42.08
2023-02-11T10:59:49.483Z,41.83
2023-02-11T11:01:59.131Z,45.17
2023-02-11T11:04:01.205Z,40.40
2023-02-11T11:08:09.167Z,42.58
2023-02-11T11:10:33.878Z,44.38
2023-02-11T11:12:45.063Z,44.92
2023-02-11T11:14:55.878Z,47.75
2023-02-11T11:16:57.737Z,50.72
2023-02-11T11:19:08.533Z,43.30
2023-02-11T11:21:23.663Z,49.00
2023-02-11T11:23:27.209Z,43.42
2023-02-11T11:25:30.509Z,47.22
2023-02-11T11:27:33.206Z,48.58
2023-02-11T11:29:45.160Z,46.42
2023-02-11T11:32:01.350Z,44.33
2023-02-11T11:34:26.465Z,42.28
2023-02-11T11:36:38.242Z,42.25
2023-02-11T11:38:56.462Z,46.03
2023-02-11T11:41:34.584Z,51.55
2023-02-11T11:43:37.687Z,45.78
2023-02-11T11:45:40.172Z,48.95
2023-02-11T11:47:53.087Z,41.80
2023-02-11T11:50:21.160Z,45.45
2023-02-11T11:52:28.899Z,36.35
2023-02-11T11:54:34.042Z,38.95
2023-02-11T11:56:49.727Z,45.47
2023-02-11T11:58:51.818Z,44.17
2023-02-11T12:03:19.963Z,43.35
2023-02-11T12:05:45.076Z,38.20
2023-02-11T12:08:21.977Z,40.38
2023-02-11T12:10:51.194Z,38.60
2023-02-11T12:13:09.781Z,38.80
2023-02-11T12:15:30.049Z,45.15
2023-02-11T12:17:43.532Z,48.40
2023-02-11T12:19:56.467Z,45.13
2023-02-11T12:22:10.890Z,39.45
2023-02-11T12:24:52.982Z,49.60
2023-02-11T12:27:09.893Z,50.70
2023-02-11T12:29:21.574Z,47.90
2023-02-11T12:31:56.723Z,45.65
2023-02-11T12:34:26.591Z,48.85
2023-02-11T12:36:45.458Z,49.20
2023-02-11T12:39:01.821Z,33.80
2023-02-11T12:42:05.131Z,44.42
2023-02-11T12:46:58.693Z,40.72
2023-02-11T12:49:35.890Z,43.75
2023-02-11T12:51:58.427Z,51.30
2023-02-11T12:54:21.334Z,35.95
2023-02-11T13:26:24.610Z,40.75
2023-02-11T13:28:38.851Z,35.35
2023-02-11T13:30:47.109Z,37.50
2023-02-11T13:32:54.855Z,35.83
2023-02-11T13:34:58.822Z,37.40
2023-02-11T13:37:00.782Z,41.40
2023-02-11T13:39:06.099Z,40.40
2023-02-11T13:41:27.831Z,39.28
2023-02-11T13:43:35.059Z,35.70
2023-02-11T13:45:43.971Z,38.40
2023-02-11T13:47:47.856Z,35.03
2023-02-11T13:49:54.758Z,35.83
2023-02-11T13:51:58.926Z,34.28
2023-02-11T13:54:01.566Z,34.08
2023-02-11T13:56:23.183Z,31.83
2023-02-11T13:58:27.933Z,33.23
2023-02-11T14:00:35.851Z,30.48
2023-02-11T16:14:29.701Z,36.90
2023-02-11T16:16:34.517Z,35.90
2023-02-11T16:19:02.133Z,42.17
2023-02-11T16:21:15.911Z,38.03
2023-02-11T16:23:28.517Z,36.80
2023-02-11T16:25:30.766Z,35.58
2023-02-11T16:27:40.904Z,41.30
2023-02-11T16:29:47.582Z,38.22
2023-02-11T16:31:50.436Z,39.13
2023-02-11T16:33:52.605Z,42.28
2023-02-11T16:35:54.998Z,43.00
2023-02-11T16:37:57.120Z,37.53
2023-02-11T16:39:59.197Z,41.30
2023-02-11T16:46:05.874Z,47.10
2023-02-11T16:48:09.535Z,37.17
2023-02-11T16:50:32.777Z,39.92
2023-02-11T16:52:35.981Z,36.40
2023-02-11T16:54:38.138Z,42.95
2023-02-11T16:56:40.240Z,40.58
2023-02-11T17:00:44.985Z,37.47
2023-02-11T17:02:46.999Z,38.22
2023-02-11T17:06:51.686Z,41.08
2023-02-11T17:08:53.636Z,40.30
2023-02-11T17:10:55.567Z,40.90
2023-02-11T17:12:57.606Z,42.72
2023-02-11T17:17:02.079Z,42.50
2023-02-11T17:19:04.196Z,39.30
2023-02-11T17:21:07.319Z,47.45
2023-02-11T17:23:09.755Z,40.80
2023-02-11T17:25:12.129Z,41.55
2023-02-11T17:27:14.406Z,45.17
2023-02-11T17:29:19.391Z,44.47
2023-02-11T17:31:23.367Z,39.58
2023-02-11T17:33:25.257Z,43.15
2023-02-11T17:35:27.209Z,44.50
2023-02-11T17:37:33.026Z,45.70
2023-02-11T17:39:39.776Z,50.28
2023-02-11T17:41:42.217Z,45.28
2023-02-11T17:43:44.142Z,47.58
2023-02-11T17:45:46.260Z,45.22
2023-02-11T17:47:49.305Z,36.75
2023-02-11T17:49:51.192Z,45.95
2023-02-11T17:51:53.040Z,48.42
2023-02-11T17:54:02.681Z,43.67
2023-02-11T17:56:07.309Z,47.20
2023-02-11T17:58:09.758Z,45.90
2023-02-11T18:00:13.563Z,43.70
2023-02-11T18:02:17.690Z,41.53
2023-02-11T18:04:22.547Z,40.58
2023-02-11T18:06:25.081Z,40.10
2023-02-11T18:08:27.496Z,44.05
2023-02-11T18:10:29.681Z,45.42
2023-02-11T18:12:32.189Z,41.08
2023-02-11T18:14:34.640Z,44.90
2023-02-11T18:16:43.479Z,49.08
2023-02-11T18:18:46.637Z,49.00
2023-02-11T18:21:00.426Z,38.22
2023-02-11T18:23:03.578Z,49.97
2023-02-11T18:25:08.239Z,41.63
2023-02-11T18:27:17.367Z,40.20
2023-02-11T18:29:20.057Z,44.63
2023-02-11T18:31:26.679Z,41.50
2023-02-11T18:33:30.131Z,35.83
2023-02-11T18:35:32.315Z,37.00
2023-02-11T18:37:34.833Z,44.65
2023-02-11T18:39:37.020Z,35.17
2023-02-11T18:41:44.388Z,38.60
2023-02-11T18:43:48.761Z,40.80
2023-02-11T18:45:55.901Z,37.92
2023-02-11T18:48:01.843Z,40.20
2023-02-11T18:50:10.384Z,41.60
2023-02-11T18:52:12.951Z,31.58
2023-02-11T18:54:14.960Z,39.55
2023-02-11T18:58:24.006Z,34.63
2023-02-11T19:00:31.511Z,35.33
2023-02-11T19:05:20.654Z,31.73
2023-02-11T19:07:32.024Z,33.38
2023-02-11T19:09:34.060Z,41.83
2023-02-11T19:14:10.300Z,40.50
2023-02-11T19:16:14.248Z,30.50
2023-02-11T19:18:16.805Z,40.00
2023-02-11T19:20:19.227Z,36.72
2023-02-11T19:22:21.396Z,38.53
2023-02-11T19:24:23.901Z,46.22
2023-02-11T19:26:27.212Z,38.22
2023-02-11T19:28:30.835Z,40.33
2023-02-11T19:30:32.902Z,41.35
2023-02-11T19:34:41.514Z,33.45
2023-02-11T19:36:44.209Z,47.67
2023-02-11T19:38:46.370Z,37.80
2023-02-11T19:40:56.210Z,40.40
2023-02-11T19:42:58.263Z,42.42
2023-02-11T19:45:00.399Z,44.97
2023-02-11T19:47:02.413Z,45.15
2023-02-11T19:51:13.096Z,38.92
2023-02-11T19:53:15.447Z,39.75
2023-02-11T19:55:17.473Z,45.60
2023-02-11T19:59:21.661Z,38.40
2023-02-11T20:01:25.050Z,40.92
2023-02-11T20:03:27.165Z,38.95
2023-02-11T20:05:29.242Z,40.60
